Terminal Aerodrome Forecast
Issued by NWS

Home | Current Version | Previous Version | Text Only | Print | Product List | Glossary On
Versions: 1 2 3 4 5 6 7 8 9 10
850
FTUS44 KLIX 071720
TAFGPT
TAF
KGPT 071720Z 0718/0818 05005KT P6SM SKC
     FM072000 25004KT P6SM SKC
     FM081200 27008KT P6SM FEW250
     FM081500 29012G20KT P6SM FEW250=

USA.gov is the U.S. government's official web portal to all federal, state and local government web resources and services.